Time;durP1;ratioP1;P1;durP2;ratioP2;P2;SDS_P1;SDS_P2;PMS_P1;PMS_P2;Temp;Humidity;BMP_temperature;BMP_pressure;BME280_temperature;BME280_humidity;BME280_pressure;Samples;Min_cycle;Max_cycle;Signal;HPM_P1;HPM_P2
2021/01/16 00:00:55;;;;;;;2.40;1.42;;;21.70;28.90;;;;;;5073489;28;20448;-72
2021/01/16 00:03:20;;;;;;;2.15;1.38;;;21.80;28.90;;;;;;5073042;28;20396;-73
2021/01/16 00:05:47;;;;;;;1.55;1.27;;;21.70;28.80;;;;;;5073318;28;20786;-73
2021/01/16 00:08:15;;;;;;;2.10;1.43;;;21.70;28.80;;;;;;5073351;28;20383;-72
2021/01/16 00:10:43;;;;;;;2.00;1.40;;;21.70;28.80;;;;;;5073328;28;20390;-73
2021/01/16 00:13:19;;;;;;;2.17;1.40;;;21.70;28.80;;;;;;5072958;28;20375;-71
2021/01/16 00:15:46;;;;;;;1.70;1.10;;;21.70;28.80;;;;;;5073205;28;20503;-72
2021/01/16 00:18:13;;;;;;;2.30;1.30;;;21.70;28.70;;;;;;5089559;28;20459;-70
2021/01/16 00:20:42;;;;;;;1.80;1.48;;;21.70;28.80;;;;;;5073022;28;20391;-72
2021/01/16 00:23:09;;;;;;;1.70;1.30;;;21.70;28.70;;;;;;5091055;28;20409;-68
2021/01/16 00:25:35;;;;;;;2.00;1.40;;;21.70;28.70;;;;;;5093186;28;20414;-69
2021/01/16 00:28:02;;;;;;;1.67;1.20;;;21.60;28.70;;;;;;5092949;28;20928;-70
2021/01/16 00:30:30;;;;;;;1.70;1.30;;;21.60;28.70;;;;;;5093046;28;20850;-72
2021/01/16 00:32:57;;;;;;;1.42;1.23;;;21.60;28.70;;;;;;5092821;28;20421;-71
2021/01/16 00:35:26;;;;;;;1.90;1.20;;;21.60;28.70;;;;;;5075774;28;20395;-72
2021/01/16 00:37:52;;;;;;;1.65;1.30;;;21.60;28.70;;;;;;5071892;28;20448;-73
2021/01/16 00:40:21;;;;;;;1.70;1.20;;;21.60;28.70;;;;;;5072794;28;20392;-72
2021/01/16 00:42:53;;;;;;;1.40;1.30;;;21.60;28.70;;;;;;5067447;28;20389;-72
2021/01/16 00:45:20;;;;;;;1.48;1.13;;;21.60;28.60;;;;;;5052126;28;20408;-73
2021/01/16 00:47:47;;;;;;;1.67;1.30;;;21.60;28.60;;;;;;5057618;28;20454;-72
2021/01/16 00:50:18;;;;;;;2.22;1.33;;;21.60;28.60;;;;;;5072455;28;20390;-59
2021/01/16 00:52:58;;;;;;;1.60;1.40;;;21.60;28.60;;;;;;5072485;28;20387;-58
2021/01/16 00:55:25;;;;;;;1.93;1.30;;;21.60;28.60;;;;;;5071865;28;20911;-64
2021/01/16 00:57:51;;;;;;;1.90;1.20;;;21.50;28.50;;;;;;5067612;28;20393;-59
2021/01/16 01:00:18;;;;;;;1.50;1.20;;;21.50;28.50;;;;;;5060430;28;20399;-58
2021/01/16 01:02:44;;;;;;;1.50;1.30;;;21.50;28.60;;;;;;5074643;28;20409;-66
2021/01/16 01:05:16;;;;;;;1.65;1.25;;;21.50;28.50;;;;;;5052394;28;20388;-58
2021/01/16 01:07:47;;;;;;;1.40;1.15;;;21.50;28.50;;;;;;5067398;28;20393;-72
2021/01/16 01:10:20;;;;;;;1.50;1.13;;;21.50;28.50;;;;;;5052157;28;20439;-72
2021/01/16 01:12:46;;;;;;;1.70;1.25;;;21.50;28.50;;;;;;5052681;28;20397;-72
2021/01/16 01:15:11;;;;;;;1.67;1.30;;;21.50;28.50;;;;;;5057990;28;20574;-72
2021/01/16 01:17:37;;;;;;;2.20;1.20;;;21.50;28.50;;;;;;5071610;28;20408;-72
2021/01/16 01:20:05;;;;;;;1.40;1.20;;;21.50;28.50;;;;;;5071825;28;20434;-72
2021/01/16 01:22:34;;;;;;;1.67;1.25;;;21.50;28.50;;;;;;5064715;28;20417;-68
2021/01/16 01:25:00;;;;;;;1.47;1.20;;;21.50;28.40;;;;;;5056870;28;20411;-72
2021/01/16 01:27:26;;;;;;;1.65;1.20;;;21.50;28.40;;;;;;5071472;28;20379;-72
2021/01/16 01:29:51;;;;;;;1.85;1.20;;;21.50;28.40;;;;;;5091085;28;20390;-71
2021/01/16 01:32:17;;;;;;;1.50;1.03;;;21.50;28.40;;;;;;5092006;28;20461;-72
2021/01/16 01:34:42;;;;;;;1.60;1.20;;;21.50;28.40;;;;;;5091770;28;20409;-72
2021/01/16 01:37:08;;;;;;;1.53;1.30;;;21.50;28.40;;;;;;5091713;28;20470;-72
2021/01/16 01:39:35;;;;;;;1.77;1.40;;;21.50;28.40;;;;;;5091042;28;20406;-72
2021/01/16 01:42:01;;;;;;;1.20;1.10;;;21.40;28.30;;;;;;5083664;28;20808;-72
2021/01/16 01:44:27;;;;;;;1.50;1.20;;;21.50;28.30;;;;;;5051708;28;20773;-72
2021/01/16 01:46:52;;;;;;;1.40;1.15;;;21.40;28.30;;;;;;5051568;28;20460;-71
2021/01/16 01:49:18;;;;;;;1.50;1.30;;;21.40;28.40;;;;;;5051164;28;20389;-72
2021/01/16 01:51:44;;;;;;;1.70;1.20;;;21.40;28.40;;;;;;5051522;28;20393;-72
2021/01/16 01:54:10;;;;;;;1.48;1.17;;;21.40;28.40;;;;;;5051532;28;20393;-66
2021/01/16 01:56:38;;;;;;;1.58;1.35;;;21.40;28.40;;;;;;5051404;28;20496;-71
2021/01/16 01:59:07;;;;;;;1.40;1.30;;;21.30;28.30;;;;;;5064004;28;20839;-72
2021/01/16 02:01:38;;;;;;;1.60;1.25;;;21.30;28.30;;;;;;5061761;28;20406;-68
2021/01/16 02:04:05;;;;;;;1.38;1.20;;;21.30;28.30;;;;;;5051305;28;20382;-69
2021/01/16 02:06:30;;;;;;;1.40;1.15;;;21.30;28.30;;;;;;5051335;28;20432;-70
2021/01/16 02:08:56;;;;;;;1.60;1.30;;;21.30;28.30;;;;;;5050812;28;20421;-61
2021/01/16 02:11:23;;;;;;;1.47;1.30;;;21.30;28.30;;;;;;5050981;28;20447;-59
2021/01/16 02:13:48;;;;;;;1.40;1.20;;;21.30;28.30;;;;;;5051301;28;20785;-60
2021/01/16 02:16:34;;;;;;;1.50;1.23;;;21.30;28.20;;;;;;5051203;28;20917;-62
2021/01/16 02:19:04;;;;;;;1.40;1.23;;;21.30;28.20;;;;;;5051184;28;20394;-62
2021/01/16 02:21:32;;;;;;;1.35;1.10;;;21.30;28.20;;;;;;5056736;28;20404;-72
2021/01/16 02:24:12;;;;;;;1.70;1.30;;;21.30;28.20;;;;;;5075330;28;20419;-72
2021/01/16 02:26:37;;;;;;;1.50;1.20;;;21.30;28.20;;;;;;5075387;28;20411;-72
2021/01/16 02:29:08;;;;;;;1.63;1.23;;;21.30;28.30;;;;;;5089149;28;20417;-70
2021/01/16 02:31:56;;;;;;;1.80;1.40;;;21.30;28.30;;;;;;5093704;28;20409;-71
2021/01/16 02:34:26;;;;;;;1.55;1.40;;;21.30;28.40;;;;;;5095201;28;20893;-72
2021/01/16 02:37:11;;;;;;;1.70;1.30;;;21.30;28.40;;;;;;5095138;28;20418;-72
2021/01/16 02:39:44;;;;;;;2.08;1.55;;;21.20;28.30;;;;;;5094796;28;20385;-71
2021/01/16 02:42:30;;;;;;;1.48;1.30;;;21.20;28.30;;;;;;5086914;28;20479;-69
2021/01/16 02:45:04;;;;;;;1.60;1.30;;;21.20;28.30;;;;;;5064661;28;20397;-71
2021/01/16 02:47:48;;;;;;;1.70;1.40;;;21.20;28.30;;;;;;5054330;28;20400;-72
2021/01/16 02:50:19;;;;;;;2.13;1.42;;;21.20;28.30;;;;;;5054843;28;20378;-72
2021/01/16 02:52:47;;;;;;;1.60;1.40;;;21.20;28.30;;;;;;5055036;28;20401;-72
2021/01/16 02:55:12;;;;;;;1.67;1.58;;;21.20;28.20;;;;;;5054484;28;20377;-71
2021/01/16 02:57:39;;;;;;;1.90;1.55;;;21.20;28.20;;;;;;5058767;28;20420;-72
2021/01/16 03:00:11;;;;;;;1.90;1.50;;;21.20;28.20;;;;;;5062332;28;20389;-72
2021/01/16 03:02:37;;;;;;;1.70;1.50;;;21.30;28.20;;;;;;5062480;28;20396;-71
2021/01/16 03:05:04;;;;;;;1.67;1.57;;;21.30;28.20;;;;;;5073739;28;20403;-58
2021/01/16 03:07:32;;;;;;;1.92;1.58;;;21.20;28.10;;;;;;5075209;28;20895;-69
2021/01/16 03:10:01;;;;;;;1.85;1.58;;;21.20;28.20;;;;;;5074296;28;20875;-69
2021/01/16 03:12:27;;;;;;;2.63;1.80;;;21.20;28.20;;;;;;5074371;28;20384;-72
2021/01/16 03:14:58;;;;;;;1.90;1.70;;;21.20;28.20;;;;;;5074258;28;20423;-71
2021/01/16 03:17:45;;;;;;;2.45;1.85;;;21.10;28.20;;;;;;5077164;28;20482;-72
2021/01/16 03:20:34;;;;;;;1.90;1.70;;;21.20;28.20;;;;;;5074174;28;20384;-71
2021/01/16 03:23:01;;;;;;;2.30;1.77;;;21.10;28.20;;;;;;5071111;28;20438;-72
2021/01/16 03:25:31;;;;;;;1.80;1.60;;;21.10;28.20;;;;;;5072826;28;20395;-60
2021/01/16 03:27:58;;;;;;;2.08;1.80;;;21.10;28.20;;;;;;5073957;28;20395;-67
2021/01/16 03:30:25;;;;;;;1.90;1.70;;;21.10;28.20;;;;;;5074086;28;20378;-60
2021/01/16 03:32:52;;;;;;;1.85;1.70;;;21.10;28.20;;;;;;5072479;28;20384;-59
2021/01/16 03:35:24;;;;;;;1.73;1.63;;;21.10;28.20;;;;;;5073677;28;20391;-59
2021/01/16 03:37:50;;;;;;;1.90;1.70;;;21.00;28.20;;;;;;5073732;28;20416;-61
2021/01/16 03:40:16;;;;;;;2.03;1.83;;;21.00;28.20;;;;;;5073831;28;20439;-71
2021/01/16 03:42:43;;;;;;;2.30;1.80;;;21.10;28.20;;;;;;5073477;28;20418;-71
2021/01/16 03:45:14;;;;;;;2.08;1.70;;;21.00;28.10;;;;;;5065765;28;20434;-72
2021/01/16 03:47:40;;;;;;;1.98;1.73;;;21.10;28.10;;;;;;5061845;28;20408;-72
2021/01/16 03:50:06;;;;;;;2.10;1.90;;;21.10;28.10;;;;;;5093814;28;20386;-72
2021/01/16 03:52:36;;;;;;;2.10;1.90;;;21.00;28.10;;;;;;5077261;28;20401;-71
2021/01/16 03:55:03;;;;;;;2.22;1.90;;;21.00;28.10;;;;;;5053765;28;20429;-72
2021/01/16 03:57:29;;;;;;;2.00;1.80;;;21.00;28.10;;;;;;5053007;28;20472;-72
2021/01/16 03:59:55;;;;;;;1.90;1.60;;;21.00;28.20;;;;;;5053387;28;20881;-72
2021/01/16 04:02:21;;;;;;;2.10;1.90;;;21.00;28.20;;;;;;5060965;28;20403;-72
2021/01/16 04:04:48;;;;;;;2.13;1.70;;;20.90;28.20;;;;;;5073411;28;20384;-72
2021/01/16 04:07:14;;;;;;;2.00;1.70;;;20.90;28.20;;;;;;5069756;28;20398;-72
2021/01/16 04:09:41;;;;;;;2.10;1.83;;;20.90;28.20;;;;;;5052964;28;20466;-72
2021/01/16 04:12:07;;;;;;;2.00;1.80;;;20.90;28.20;;;;;;5053312;28;20538;-71
2021/01/16 04:14:33;;;;;;;1.98;1.77;;;21.00;28.20;;;;;;5053235;28;20397;-72
2021/01/16 04:16:59;;;;;;;2.00;1.80;;;20.90;28.20;;;;;;5053063;28;20416;-72
2021/01/16 04:19:24;;;;;;;1.90;1.60;;;20.90;28.20;;;;;;5071861;28;20949;-71
2021/01/16 04:21:50;;;;;;;2.28;1.80;;;20.90;28.20;;;;;;5073095;28;20403;-72
2021/01/16 04:24:16;;;;;;;2.00;1.80;;;20.90;28.20;;;;;;5073003;28;20872;-71
2021/01/16 04:26:41;;;;;;;2.00;1.80;;;20.90;28.10;;;;;;5072999;28;20880;-71
2021/01/16 04:29:07;;;;;;;2.05;1.85;;;20.90;28.20;;;;;;5053219;28;20900;-72
2021/01/16 04:31:33;;;;;;;2.05;1.83;;;21.00;28.10;;;;;;5054027;28;20393;-72
2021/01/16 04:33:59;;;;;;;1.90;1.70;;;21.00;28.10;;;;;;5072530;28;20408;-72
2021/01/16 04:36:25;;;;;;;2.05;1.85;;;21.00;28.00;;;;;;5072745;28;20880;-71
2021/01/16 04:38:50;;;;;;;1.95;1.75;;;21.00;28.00;;;;;;5072733;28;20395;-71
2021/01/16 04:41:19;;;;;;;2.10;1.90;;;21.00;28.00;;;;;;5073808;28;20402;-72
2021/01/16 04:43:46;;;;;;;2.40;2.00;;;20.90;28.00;;;;;;5054222;28;20412;-72
2021/01/16 04:46:14;;;;;;;2.20;1.90;;;20.90;28.10;;;;;;5072246;28;20962;-72
2021/01/16 04:48:43;;;;;;;2.15;1.92;;;20.90;28.10;;;;;;5072576;28;20486;-72
2021/01/16 04:51:11;;;;;;;2.10;1.90;;;20.90;28.10;;;;;;5072476;28;20376;-69
2021/01/16 04:53:40;;;;;;;2.10;1.90;;;20.80;28.10;;;;;;5072033;28;20891;-72
2021/01/16 04:56:08;;;;;;;2.03;1.83;;;20.80;28.10;;;;;;5072203;28;20407;-61
2021/01/16 04:58:35;;;;;;;2.30;1.90;;;20.80;28.10;;;;;;5065425;28;20492;-62
2021/01/16 05:01:06;;;;;;;2.30;1.85;;;20.80;28.20;;;;;;5052225;28;20412;-60
2021/01/16 05:03:41;;;;;;;2.22;2.03;;;20.80;28.10;;;;;;5051841;28;20481;-62
2021/01/16 05:06:12;;;;;;;2.00;1.77;;;20.80;28.10;;;;;;5052042;28;20400;-71
2021/01/16 05:08:42;;;;;;;2.08;1.85;;;20.80;28.10;;;;;;5070927;28;20388;-72
2021/01/16 05:11:57;;;;;;;2.17;1.98;;;20.80;28.10;;;;;;5080956;28;20448;-72
2021/01/16 05:14:35;;;;;;;2.13;1.92;;;20.80;28.10;;;;;;5060889;28;20394;-72
2021/01/16 05:17:02;;;;;;;2.38;2.10;;;20.80;28.00;;;;;;5090763;28;20439;-72
2021/01/16 05:19:33;;;;;;;2.30;2.10;;;20.80;28.00;;;;;;5091373;28;20401;-73
2021/01/16 05:22:00;;;;;;;2.30;2.10;;;20.80;28.00;;;;;;5092085;28;20405;-71
2021/01/16 05:24:27;;;;;;;2.83;2.53;;;20.80;28.00;;;;;;5092198;28;20382;-72
2021/01/16 05:27:05;;;;;;;2.60;2.40;;;20.80;28.00;;;;;;5084548;28;20411;-72
2021/01/16 05:29:32;;;;;;;2.67;2.40;;;20.80;28.10;;;;;;5070951;28;20395;-70
2021/01/16 05:32:00;;;;;;;2.90;2.60;;;20.80;28.00;;;;;;5071129;28;20448;-72
2021/01/16 05:34:27;;;;;;;3.10;2.70;;;20.80;28.10;;;;;;5071668;28;20422;-72
2021/01/16 05:36:54;;;;;;;3.50;3.00;;;20.70;28.10;;;;;;5066479;28;20425;-72
2021/01/16 05:39:22;;;;;;;3.58;3.20;;;20.70;28.10;;;;;;5052425;28;20452;-72
2021/01/16 05:41:48;;;;;;;3.30;3.00;;;20.70;28.10;;;;;;5071433;28;20415;-70
2021/01/16 05:44:15;;;;;;;3.70;3.35;;;20.70;28.10;;;;;;5083597;28;20393;-69
2021/01/16 05:46:44;;;;;;;3.75;3.35;;;20.70;28.10;;;;;;5087731;28;20418;-73
2021/01/16 05:49:15;;;;;;;3.70;3.30;;;20.70;28.10;;;;;;5071579;28;20864;-72
2021/01/16 05:51:44;;;;;;;3.70;3.40;;;20.70;28.10;;;;;;5071386;28;20392;-71
2021/01/16 05:54:14;;;;;;;3.72;3.35;;;20.70;28.10;;;;;;5071202;28;20380;-72
2021/01/16 05:56:42;;;;;;;3.70;3.30;;;20.70;28.00;;;;;;5071094;28;20402;-72
2021/01/16 05:59:14;;;;;;;3.30;3.00;;;20.70;28.00;;;;;;5071457;28;20451;-72
2021/01/16 06:01:44;;;;;;;3.67;3.38;;;20.70;28.00;;;;;;5070866;28;20384;-69
2021/01/16 06:04:18;;;;;;;3.78;3.38;;;20.70;28.00;;;;;;5071310;28;20453;-72
2021/01/16 06:06:44;;;;;;;3.58;3.28;;;20.70;27.90;;;;;;5053120;28;20435;-71
2021/01/16 06:09:18;;;;;;;3.92;3.53;;;20.70;27.90;;;;;;5051311;28;20397;-72
2021/01/16 06:11:50;;;;;;;3.60;3.30;;;20.80;27.90;;;;;;5081630;28;20414;-71
2021/01/16 06:14:17;;;;;;;3.40;3.03;;;20.70;27.90;;;;;;5072668;28;20402;-72
2021/01/16 06:16:49;;;;;;;3.43;3.00;;;20.70;28.00;;;;;;5070991;28;20896;-72
2021/01/16 06:19:24;;;;;;;3.58;3.10;;;20.70;28.00;;;;;;5090042;28;20390;-72
2021/01/16 06:21:51;;;;;;;3.50;3.20;;;20.70;28.00;;;;;;5083522;28;20496;-67
2021/01/16 06:24:22;;;;;;;3.37;3.07;;;20.70;28.00;;;;;;5050042;28;20436;-72
2021/01/16 06:26:56;;;;;;;3.42;2.97;;;20.60;28.00;;;;;;5051267;28;20377;-58
2021/01/16 06:29:39;;;;;;;3.28;2.83;;;20.60;28.00;;;;;;5051019;28;20400;-59
2021/01/16 06:32:09;;;;;;;3.53;3.20;;;20.60;28.00;;;;;;5068898;28;20407;-66
2021/01/16 06:34:37;;;;;;;3.28;2.97;;;20.60;28.00;;;;;;5070859;28;20411;-64
2021/01/16 06:37:08;;;;;;;3.17;2.88;;;20.60;28.10;;;;;;5070818;28;20419;-59
2021/01/16 06:39:38;;;;;;;3.50;3.20;;;20.60;28.00;;;;;;5070679;28;20871;-60
2021/01/16 06:42:11;;;;;;;3.50;3.03;;;20.60;28.00;;;;;;5070192;28;20872;-64
2021/01/16 06:44:38;;;;;;;2.83;2.53;;;20.60;28.00;;;;;;5071097;28;20468;-61
2021/01/16 06:47:04;;;;;;;3.50;2.90;;;20.60;28.50;;;;;;5061127;28;20397;-66
2021/01/16 06:49:31;;;;;;;3.53;2.85;;;20.60;28.00;;;;;;5049276;28;20397;-60
2021/01/16 06:52:05;;;;;;;3.00;2.70;;;20.60;27.90;;;;;;5050886;28;20397;-58
2021/01/16 06:54:35;;;;;;;3.30;2.83;;;20.60;27.90;;;;;;5050983;28;20394;-71
2021/01/16 06:57:12;;;;;;;2.90;2.60;;;20.60;28.00;;;;;;5050720;28;20422;-72
2021/01/16 06:59:39;;;;;;;3.05;2.75;;;20.60;28.00;;;;;;5061279;28;20391;-72
2021/01/16 07:02:26;;;;;;;2.92;2.63;;;20.60;28.00;;;;;;5052832;28;20405;-71
2021/01/16 07:05:13;;;;;;;3.00;2.70;;;20.60;28.00;;;;;;5069295;28;20388;-71
2021/01/16 07:07:40;;;;;;;3.45;3.10;;;20.60;28.10;;;;;;5069453;28;20415;-70
2021/01/16 07:10:13;;;;;;;3.85;3.55;;;20.50;28.30;;;;;;5074221;28;20894;-71
2021/01/16 07:12:50;;;;;;;3.97;3.50;;;20.40;28.40;;;;;;5070663;28;20440;-67
2021/01/16 07:15:21;;;;;;;4.33;3.50;;;20.30;28.10;;;;;;5054448;28;20541;-63
2021/01/16 07:17:47;;;;;;;4.60;3.43;;;20.20;28.20;;;;;;5052415;28;20421;-69
2021/01/16 07:20:14;;;;;;;4.30;3.80;;;20.10;28.30;;;;;;5054313;28;20374;-71
2021/01/16 07:22:42;;;;;;;5.05;3.58;;;20.10;28.50;;;;;;5061619;28;20983;-71
2021/01/16 07:25:10;;;;;;;6.63;3.85;;;20.00;28.70;;;;;;5066145;28;20401;-70
2021/01/16 07:27:40;;;;;;;5.20;3.63;;;20.00;29.10;;;;;;5063778;28;20756;-64
2021/01/16 07:30:09;;;;;;;8.68;3.70;;;20.10;29.70;;;;;;5071925;28;20405;-65
2021/01/16 07:32:47;;;;;;;4.60;3.60;;;20.10;29.30;;;;;;5073013;28;20752;-69
2021/01/16 07:35:21;;;;;;;6.07;3.90;;;20.20;29.10;;;;;;5077545;28;20402;-66
2021/01/16 07:37:49;;;;;;;4.93;3.63;;;20.20;29.40;;;;;;5087685;28;20425;-70
2021/01/16 07:40:18;;;;;;;5.50;3.70;;;20.20;29.30;;;;;;5092473;28;20393;-71
2021/01/16 07:42:56;;;;;;;5.73;3.70;;;20.30;29.50;;;;;;5072275;28;20391;-64
2021/01/16 07:45:29;;;;;;;5.07;3.70;;;20.20;29.30;;;;;;5073323;28;20408;-69
2021/01/16 07:48:04;;;;;;;5.22;3.80;;;20.10;29.50;;;;;;5073125;28;20388;-72
2021/01/16 07:50:31;;;;;;;4.32;3.88;;;20.10;29.30;;;;;;5073644;28;20383;-66
2021/01/16 07:53:06;;;;;;;4.07;3.40;;;20.10;29.20;;;;;;5073455;28;20440;-64
2021/01/16 07:55:34;;;;;;;6.20;3.63;;;20.10;29.30;;;;;;5072403;28;20387;-67
2021/01/16 07:58:19;;;;;;;5.97;3.50;;;20.00;29.40;;;;;;5071497;28;20415;-63
2021/01/16 08:00:56;;;;;;;5.55;3.70;;;20.00;29.40;;;;;;5071322;28;20384;-64
2021/01/16 08:03:21;;;;;;;3.75;3.40;;;20.00;29.60;;;;;;5071514;28;20403;-60
2021/01/16 08:06:20;;;;;;;4.17;3.30;;;20.00;29.80;;;;;;5071081;28;20384;-66
2021/01/16 08:08:45;;;;;;;5.82;3.55;;;19.90;29.50;;;;;;5071753;28;20387;-70
2021/01/16 08:11:13;;;;;;;4.20;3.40;;;19.90;29.50;;;;;;5071083;28;20394;-70
2021/01/16 08:13:39;;;;;;;5.47;3.72;;;19.90;29.50;;;;;;5072705;28;20398;-70
2021/01/16 08:16:04;;;;;;;4.03;3.40;;;19.80;29.50;;;;;;5073036;28;20411;-71
2021/01/16 08:18:33;;;;;;;3.83;3.47;;;19.90;29.50;;;;;;5071203;28;20439;-71
2021/01/16 08:21:07;;;;;;;4.88;3.50;;;19.90;29.60;;;;;;5072712;28;20395;-70
2021/01/16 08:23:46;;;;;;;3.88;3.25;;;19.80;29.60;;;;;;5072559;28;20401;-71
2021/01/16 08:26:11;;;;;;;4.30;3.30;;;19.80;29.50;;;;;;5068322;28;20397;-67
2021/01/16 08:28:38;;;;;;;4.40;3.40;;;19.90;29.60;;;;;;5068924;28;20411;-62
2021/01/16 08:31:04;;;;;;;6.63;3.47;;;19.90;29.80;;;;;;5088801;28;20404;-67
2021/01/16 08:33:33;;;;;;;4.05;3.38;;;19.90;30.00;;;;;;5072053;28;20946;-64
2021/01/16 08:36:16;;;;;;;5.75;3.30;;;19.90;30.20;;;;;;5072132;28;20480;-58
2021/01/16 08:38:43;;;;;;;4.38;3.42;;;19.90;30.40;;;;;;5072397;28;20392;-61
2021/01/16 08:41:08;;;;;;;4.10;3.30;;;19.90;30.00;;;;;;5071417;28;20922;-70
2021/01/16 08:43:34;;;;;;;3.75;3.15;;;19.90;30.00;;;;;;5072201;28;20400;-62
2021/01/16 08:46:17;;;;;;;3.87;3.27;;;19.90;30.90;;;;;;5071114;28;20395;-70
2021/01/16 08:48:58;;;;;;;4.50;3.00;;;20.00;30.70;;;;;;5072374;28;20388;-70
2021/01/16 08:51:34;;;;;;;4.18;3.28;;;19.90;29.90;;;;;;5072442;28;20526;-71
2021/01/16 08:54:07;;;;;;;7.78;3.20;;;19.90;29.80;;;;;;5072368;28;20748;-70
2021/01/16 08:56:32;;;;;;;6.40;3.13;;;19.90;31.70;;;;;;5072231;28;20399;-70
2021/01/16 08:59:10;;;;;;;5.70;3.10;;;20.00;30.50;;;;;;5074386;28;20491;-72
2021/01/16 09:01:38;;;;;;;6.95;3.13;;;20.00;32.10;;;;;;5068908;28;20911;-70
2021/01/16 09:04:18;;;;;;;4.25;3.05;;;20.00;32.80;;;;;;5069562;28;20473;-70
2021/01/16 09:06:44;;;;;;;4.78;3.40;;;20.10;31.90;;;;;;5078248;28;20412;-71
2021/01/16 09:09:11;;;;;;;8.50;3.33;;;20.10;31.50;;;;;;5064608;28;20756;-70
2021/01/16 09:11:37;;;;;;;10.27;3.50;;;20.00;32.70;;;;;;5071723;28;20399;-70
2021/01/16 09:14:03;;;;;;;10.52;3.53;;;20.00;31.20;;;;;;5072120;28;20490;-71
2021/01/16 09:16:34;;;;;;;6.28;2.92;;;20.00;32.30;;;;;;5071995;28;20408;-72
2021/01/16 09:19:00;;;;;;;5.55;2.90;;;20.00;30.70;;;;;;5071687;28;20406;-58
2021/01/16 09:21:27;;;;;;;8.65;3.28;;;20.00;30.40;;;;;;5071901;28;20383;-59
2021/01/16 09:23:54;;;;;;;9.32;3.30;;;20.00;30.40;;;;;;5070247;28;20392;-64
2021/01/16 09:26:24;;;;;;;11.98;3.50;;;20.10;30.20;;;;;;5070111;28;20902;-60
2021/01/16 09:29:04;;;;;;;6.57;3.33;;;20.10;29.90;;;;;;5071864;28;20887;-70
2021/01/16 09:31:41;;;;;;;7.63;3.00;;;20.10;29.90;;;;;;5071460;28;20388;-69
2021/01/16 09:34:17;;;;;;;7.82;3.20;;;20.10;29.80;;;;;;5071657;28;20779;-72
2021/01/16 09:36:46;;;;;;;5.68;3.13;;;20.10;29.60;;;;;;5070562;28;20419;-72
2021/01/16 09:39:18;;;;;;;7.40;2.80;;;20.10;29.60;;;;;;5071950;28;20391;-69
2021/01/16 09:41:49;;;;;;;5.00;2.90;;;20.10;29.70;;;;;;5069441;28;20468;-70
2021/01/16 09:44:35;;;;;;;5.25;2.78;;;20.10;29.40;;;;;;5055177;28;20760;-72
2021/01/16 09:47:01;;;;;;;4.20;2.90;;;20.10;29.50;;;;;;5069832;28;20407;-72
2021/01/16 09:49:43;;;;;;;6.23;2.83;;;20.10;29.50;;;;;;5067712;28;20388;-65
2021/01/16 09:52:09;;;;;;;6.38;2.58;;;20.20;29.50;;;;;;5068319;28;20392;-72
2021/01/16 09:54:35;;;;;;;4.47;2.60;;;20.20;29.50;;;;;;5064502;28;20388;-72
2021/01/16 09:57:02;;;;;;;6.15;2.80;;;20.20;29.50;;;;;;5068401;28;20942;-70
2021/01/16 09:59:28;;;;;;;4.22;2.30;;;20.20;29.40;;;;;;5067285;28;20392;-72
2021/01/16 10:02:13;;;;;;;4.25;2.40;;;20.20;29.40;;;;;;5083727;28;20407;-72
2021/01/16 10:04:45;;;;;;;3.67;2.53;;;20.20;29.30;;;;;;5068275;28;20431;-72
2021/01/16 10:07:15;;;;;;;4.82;2.25;;;20.20;29.30;;;;;;5068388;28;20408;-72
2021/01/16 10:09:42;;;;;;;4.70;2.40;;;20.20;29.30;;;;;;5068093;28;20426;-59
2021/01/16 10:12:09;;;;;;;4.37;2.70;;;20.20;29.30;;;;;;5068500;28;20915;-71
2021/01/16 10:14:36;;;;;;;3.42;2.40;;;20.10;29.20;;;;;;5066649;28;20398;-71
2021/01/16 10:17:09;;;;;;;4.18;2.50;;;20.10;29.20;;;;;;5068595;28;20418;-72
2021/01/16 10:19:38;;;;;;;4.25;2.53;;;20.10;29.20;;;;;;5068467;28;20387;-72
2021/01/16 10:22:03;;;;;;;3.78;2.55;;;20.10;29.20;;;;;;5068421;28;20410;-73
2021/01/16 10:24:29;;;;;;;4.30;2.57;;;20.10;29.20;;;;;;5066677;28;20851;-72
2021/01/16 10:26:56;;;;;;;4.75;2.60;;;20.10;29.10;;;;;;5068131;28;20402;-62
2021/01/16 10:29:38;;;;;;;4.07;2.70;;;20.10;29.10;;;;;;5068635;28;20873;-71
2021/01/16 10:32:22;;;;;;;4.30;2.85;;;20.10;29.10;;;;;;5067225;28;20783;-70
2021/01/16 10:34:58;;;;;;;4.85;2.88;;;20.10;29.00;;;;;;5067891;28;20465;-72
2021/01/16 10:37:24;;;;;;;3.35;2.70;;;20.10;29.00;;;;;;5068430;28;20929;-69
2021/01/16 10:39:50;;;;;;;2.90;2.60;;;20.10;29.00;;;;;;5067485;28;20445;-73
2021/01/16 10:42:18;;;;;;;4.10;2.70;;;20.10;29.00;;;;;;5070163;28;20395;-71
2021/01/16 10:44:44;;;;;;;2.88;2.60;;;20.10;29.00;;;;;;5071196;28;20383;-72
2021/01/16 10:47:33;;;;;;;3.88;2.72;;;20.10;29.00;;;;;;5072088;28;20399;-72
2021/01/16 10:50:12;;;;;;;3.20;2.90;;;20.10;29.00;;;;;;5071257;28;20380;-69
2021/01/16 10:52:39;;;;;;;3.70;2.50;;;20.10;29.00;;;;;;5070739;28;20399;-60
2021/01/16 10:55:12;;;;;;;3.00;2.55;;;20.10;29.00;;;;;;5071036;28;20384;-71
2021/01/16 10:57:47;;;;;;;3.30;2.60;;;20.10;29.00;;;;;;5070170;28;20946;-65
2021/01/16 11:00:15;;;;;;;3.27;2.70;;;20.10;29.00;;;;;;5070285;28;20392;-72
2021/01/16 11:02:49;;;;;;;2.67;2.35;;;20.20;28.90;;;;;;5070564;28;20468;-72
2021/01/16 11:05:20;;;;;;;2.88;2.58;;;20.10;28.90;;;;;;5071878;28;20395;-67
2021/01/16 11:07:50;;;;;;;2.70;2.40;;;20.10;28.90;;;;;;5071375;28;20388;-72
2021/01/16 11:10:17;;;;;;;2.70;2.40;;;20.10;28.90;;;;;;5071839;28;20446;-70
2021/01/16 11:12:44;;;;;;;2.58;2.25;;;20.10;28.90;;;;;;5068768;28;20474;-72
2021/01/16 11:15:19;;;;;;;3.35;2.42;;;20.10;28.90;;;;;;5069551;28;20399;-70
2021/01/16 11:17:47;;;;;;;2.55;2.20;;;20.10;28.90;;;;;;5068975;28;20771;-72
2021/01/16 11:20:48;;;;;;;2.55;1.90;;;20.10;28.80;;;;;;5067112;28;20387;-72
2021/01/16 11:23:29;;;;;;;3.45;2.33;;;20.10;28.70;;;;;;5064459;28;20396;-72
2021/01/16 11:25:56;;;;;;;3.30;2.25;;;20.20;28.70;;;;;;5070871;28;20399;-71
2021/01/16 11:28:26;;;;;;;2.55;2.20;;;20.10;28.70;;;;;;5086902;28;20388;-72
2021/01/16 11:31:06;;;;;;;2.90;2.35;;;20.20;28.60;;;;;;5071275;28;20394;-72
2021/01/16 11:33:32;;;;;;;3.17;2.50;;;20.20;28.60;;;;;;5071221;28;20422;-74
2021/01/16 11:36:15;;;;;;;4.80;2.40;;;20.20;28.50;;;;;;5068974;28;20403;-74
2021/01/16 11:38:49;;;;;;;3.72;2.58;;;20.20;28.50;;;;;;5069498;28;20491;-72
2021/01/16 11:42:04;;;;;;;4.75;3.63;;;20.20;28.40;;;;;;5086536;28;20574;-72
2021/01/16 11:44:46;;;;;;;5.65;3.45;;;20.30;28.30;;;;;;5061924;28;20403;-72
2021/01/16 11:47:11;;;;;;;4.20;3.07;;;20.40;27.90;;;;;;5067672;28;20439;-72
2021/01/16 11:49:37;;;;;;;5.50;3.05;;;20.40;28.50;;;;;;5071037;28;20392;-72
2021/01/16 11:52:03;;;;;;;3.60;2.90;;;20.40;28.80;;;;;;5070495;28;20449;-73
2021/01/16 11:54:29;;;;;;;5.15;3.10;;;20.40;29.70;;;;;;5085626;28;20388;-71
2021/01/16 11:56:55;;;;;;;5.10;2.90;;;20.40;30.30;;;;;;5070637;28;20434;-69
2021/01/16 11:59:21;;;;;;;4.90;2.95;;;20.40;30.70;;;;;;5086033;28;20918;-71
2021/01/16 12:01:47;;;;;;;6.30;2.88;;;20.50;30.10;;;;;;5069950;28;20902;-73
2021/01/16 12:04:13;;;;;;;5.38;3.00;;;20.40;30.10;;;;;;5070754;28;20438;-73
2021/01/16 12:06:40;;;;;;;3.13;2.60;;;20.40;30.10;;;;;;5070409;28;21228;-73
2021/01/16 12:09:06;;;;;;;4.90;3.33;;;20.50;30.40;;;;;;5071007;28;20384;-73
2021/01/16 12:11:32;;;;;;;7.32;3.00;;;20.40;29.90;;;;;;5085455;28;20395;-73
2021/01/16 12:13:57;;;;;;;4.03;3.10;;;20.50;30.50;;;;;;5070178;28;20854;-73
2021/01/16 12:16:32;;;;;;;5.57;3.00;;;20.50;30.20;;;;;;5069378;28;20403;-73
2021/01/16 12:18:59;;;;;;;4.20;3.22;;;20.60;30.10;;;;;;5070159;28;20384;-71
2021/01/16 12:21:26;;;;;;;4.82;3.30;;;20.60;30.20;;;;;;5070035;28;20474;-73
2021/01/16 12:23:55;;;;;;;3.58;3.22;;;20.60;30.20;;;;;;5069913;28;20492;-73
2021/01/16 12:26:25;;;;;;;5.80;3.30;;;20.60;29.90;;;;;;5070135;28;20430;-72
2021/01/16 12:28:56;;;;;;;6.07;3.42;;;20.60;30.20;;;;;;5070101;28;20388;-73
2021/01/16 12:31:26;;;;;;;5.43;3.33;;;20.60;30.20;;;;;;5070266;28;20423;-65
2021/01/16 12:33:53;;;;;;;4.25;3.08;;;20.60;30.10;;;;;;5068806;28;20434;-73
2021/01/16 12:36:20;;;;;;;4.78;3.25;;;20.60;29.60;;;;;;5069231;28;20458;-73
2021/01/16 12:38:52;;;;;;;4.78;3.40;;;20.60;29.60;;;;;;5069351;28;20428;-72
2021/01/16 12:41:25;;;;;;;4.70;3.40;;;20.60;29.30;;;;;;5069484;28;20761;-76
2021/01/16 12:43:52;;;;;;;5.43;3.10;;;20.60;29.50;;;;;;5068755;28;20391;-71
2021/01/16 12:46:19;;;;;;;3.92;3.00;;;20.60;29.50;;;;;;5069199;28;20442;-73
2021/01/16 12:48:45;;;;;;;6.65;3.42;;;20.60;29.30;;;;;;5069581;28;20445;-73
2021/01/16 12:51:16;;;;;;;4.67;3.47;;;20.60;29.20;;;;;;5069044;28;20396;-72
2021/01/16 12:53:45;;;;;;;3.58;3.00;;;20.60;29.10;;;;;;5069129;28;20392;-73
2021/01/16 12:56:18;;;;;;;4.63;2.85;;;20.60;28.90;;;;;;5069215;28;20479;-75
2021/01/16 12:58:48;;;;;;;4.78;3.10;;;20.60;28.80;;;;;;5069118;28;20476;-72
2021/01/16 13:01:15;;;;;;;4.97;3.03;;;20.60;28.80;;;;;;5069058;28;20714;-74